createdAt,value
2023-01-23T00:01:35.714Z,-0.10
2023-01-23T00:04:05.339Z,-0.70
2023-01-23T00:06:33.041Z,0.00
2023-01-23T00:09:00.446Z,-0.80
2023-01-23T00:11:30.243Z,-0.50
2023-01-23T00:13:59.030Z,-0.60
2023-01-23T00:16:28.690Z,-0.50
2023-01-23T00:18:56.751Z,-0.60
2023-01-23T00:21:26.693Z,-0.60
2023-01-23T00:23:56.999Z,-0.60
2023-01-23T00:26:27.730Z,-0.80
2023-01-23T00:28:56.088Z,-0.70
2023-01-23T00:31:26.512Z,-0.70
2023-01-23T00:33:56.734Z,-0.70
2023-01-23T00:36:27.658Z,-0.90
2023-01-23T00:38:56.407Z,-1.00
2023-01-23T00:41:24.323Z,-1.10
2023-01-23T00:43:52.275Z,-1.00
2023-01-23T00:46:20.563Z,-1.10
2023-01-23T00:48:48.079Z,0.60
2023-01-23T00:51:15.806Z,0.20
2023-01-23T00:53:43.511Z,-0.90
2023-01-23T00:56:11.479Z,-0.90
2023-01-23T00:58:40.470Z,-0.90
2023-01-23T01:01:09.397Z,-0.90
2023-01-23T01:06:05.532Z,-0.90
2023-01-23T01:08:33.088Z,-1.00
2023-01-23T01:11:00.955Z,-0.70
2023-01-23T01:13:28.931Z,-1.00
2023-01-23T01:15:57.194Z,-0.70
2023-01-23T01:18:24.627Z,-1.10
2023-01-23T01:20:52.012Z,-1.10
2023-01-23T01:23:19.304Z,-1.20
2023-01-23T01:25:47.219Z,-1.10
2023-01-23T01:28:15.082Z,-1.20
2023-01-23T01:33:11.199Z,-1.20
2023-01-23T01:35:41.089Z,-1.40
2023-01-23T01:38:09.325Z,-1.40
2023-01-23T01:40:37.244Z,-1.40
2023-01-23T01:43:15.749Z,-1.40
2023-01-23T01:46:07.417Z,-1.40
2023-01-23T01:49:07.173Z,-1.40
2023-01-23T01:52:04.292Z,-1.40
2023-01-23T01:54:53.273Z,-1.00
2023-01-23T01:57:25.411Z,-1.40
2023-01-23T01:59:58.757Z,-1.50
2023-01-23T02:02:43.720Z,-1.70
2023-01-23T02:05:14.778Z,-1.60
2023-01-23T02:07:58.992Z,-1.90
2023-01-23T02:10:26.348Z,-1.50
2023-01-23T02:12:53.760Z,-1.00
2023-01-23T02:15:25.021Z,-1.50
2023-01-23T02:17:54.927Z,-1.40
2023-01-23T02:20:27.966Z,-1.40
2023-01-23T02:23:07.135Z,-1.40
2023-01-23T02:25:43.816Z,-1.40
2023-01-23T02:28:15.981Z,-1.40
2023-01-23T02:30:47.109Z,-1.50
2023-01-23T02:33:21.155Z,-1.60
2023-01-23T02:35:50.703Z,-1.50
2023-01-23T02:38:22.598Z,-1.10
2023-01-23T02:40:52.581Z,-1.20
2023-01-23T02:43:26.189Z,-1.50
2023-01-23T02:46:01.691Z,-1.60
2023-01-23T02:48:29.037Z,-1.60
2023-01-23T02:53:25.696Z,-1.70
2023-01-23T02:55:54.062Z,-1.60
2023-01-23T02:58:42.007Z,-1.60
2023-01-23T03:01:09.863Z,-1.60
2023-01-23T03:03:42.477Z,-1.60
2023-01-23T03:06:10.858Z,-0.40
2023-01-23T03:08:48.179Z,-2.00
2023-01-23T03:11:18.597Z,-1.50
2023-01-23T03:13:47.673Z,-1.80
2023-01-23T03:16:15.785Z,-1.80
2023-01-23T03:18:53.878Z,-1.90
2023-01-23T03:21:22.433Z,-1.80
2023-01-23T03:23:49.958Z,-2.00
2023-01-23T03:26:18.557Z,-2.00
2023-01-23T03:29:06.181Z,-1.80
2023-01-23T03:31:33.621Z,-2.00
2023-01-23T03:34:01.253Z,-2.00
2023-01-23T03:36:29.745Z,-1.70
2023-01-23T03:39:17.461Z,-1.80
2023-01-23T03:44:13.592Z,-1.70
2023-01-23T03:46:41.715Z,-1.70
2023-01-23T03:49:09.346Z,-2.00
2023-01-23T03:51:36.810Z,-1.70
2023-01-23T03:54:04.347Z,-1.80
2023-01-23T03:59:00.305Z,-1.70
2023-01-23T04:01:28.194Z,-1.80
2023-01-23T04:03:56.553Z,-1.80
2023-01-23T04:06:24.232Z,-1.80
2023-01-23T04:08:51.977Z,-1.80
2023-01-23T04:11:20.047Z,-1.80
2023-01-23T04:13:47.633Z,-2.10
2023-01-23T04:16:15.061Z,-2.00
2023-01-23T04:18:42.426Z,-1.90
2023-01-23T04:21:09.867Z,-2.00
2023-01-23T04:23:37.438Z,-2.00
2023-01-23T04:26:04.916Z,-2.10
2023-01-23T04:28:34.068Z,-2.00
2023-01-23T04:31:01.839Z,-2.10
2023-01-23T04:33:34.111Z,-1.90
2023-01-23T04:36:05.041Z,-2.10
2023-01-23T04:38:33.451Z,-2.00
2023-01-23T04:41:23.157Z,-2.20
2023-01-23T04:44:18.063Z,-2.00
2023-01-23T04:46:49.970Z,-2.00
2023-01-23T04:49:21.967Z,-2.20
2023-01-23T04:51:50.142Z,-2.10
2023-01-23T04:54:22.176Z,-2.10
2023-01-23T04:56:49.951Z,-2.00
2023-01-23T04:59:19.376Z,-2.10
2023-01-23T05:01:47.199Z,-2.40
2023-01-23T05:04:15.009Z,-2.10
2023-01-23T05:06:43.090Z,-2.20
2023-01-23T05:09:13.468Z,-2.10
2023-01-23T05:14:18.668Z,-2.10
2023-01-23T05:16:48.190Z,-2.10
2023-01-23T05:19:20.143Z,-1.50
2023-01-23T05:21:47.867Z,-2.30
2023-01-23T05:24:18.409Z,-2.00
2023-01-23T05:26:46.290Z,-2.10
2023-01-23T05:29:14.631Z,-2.10
2023-01-23T05:31:51.837Z,-2.10
2023-01-23T05:34:42.038Z,-2.20
2023-01-23T05:37:27.872Z,-2.20
2023-01-23T05:40:02.223Z,-2.30
2023-01-23T05:42:49.921Z,-2.30
2023-01-23T05:45:40.085Z,-2.30
2023-01-23T05:48:13.484Z,-2.30
2023-01-23T05:50:41.930Z,-2.30
2023-01-23T05:53:09.596Z,-2.30
2023-01-23T05:55:40.162Z,-2.30
2023-01-23T05:58:08.876Z,-2.40
2023-01-23T06:00:56.479Z,-2.50
2023-01-23T06:03:42.168Z,-2.50
2023-01-23T06:06:35.572Z,-2.40
2023-01-23T06:09:03.144Z,-2.50
2023-01-23T06:11:30.927Z,-2.50
2023-01-23T06:13:58.293Z,-2.60
2023-01-23T06:16:25.710Z,-2.60
2023-01-23T06:21:21.242Z,-2.50
2023-01-23T06:23:48.610Z,-2.60
2023-01-23T06:26:17.199Z,-2.60
2023-01-23T06:28:44.991Z,-2.00
2023-01-23T06:31:12.856Z,-2.60
2023-01-23T06:33:52.050Z,-2.50
2023-01-23T06:36:22.642Z,-2.80
2023-01-23T06:38:50.159Z,-2.50
2023-01-23T06:41:22.592Z,-2.10
2023-01-23T06:43:53.675Z,-2.60
2023-01-23T06:46:24.791Z,-2.60
2023-01-23T06:48:54.204Z,-2.60
2023-01-23T06:51:22.838Z,-2.60
2023-01-23T06:53:50.406Z,-2.70
2023-01-23T06:56:17.980Z,-2.70
2023-01-23T06:58:46.805Z,-1.90
2023-01-23T07:04:17.919Z,-2.60
2023-01-23T07:09:17.276Z,-2.70
2023-01-23T07:11:51.112Z,-2.70
2023-01-23T07:14:18.774Z,-2.70
2023-01-23T07:16:48.726Z,-2.90
2023-01-23T07:19:16.715Z,-2.80
2023-01-23T07:21:45.138Z,-2.80
2023-01-23T07:24:15.259Z,-2.80
2023-01-23T07:26:42.612Z,-2.90
2023-01-23T07:29:10.635Z,-2.90
2023-01-23T07:34:05.936Z,-2.70
2023-01-23T07:36:33.281Z,-1.50
2023-01-23T07:39:00.801Z,-2.50
2023-01-23T07:41:29.463Z,-2.90
2023-01-23T07:43:58.008Z,-2.80
2023-01-23T07:48:56.198Z,-2.80
2023-01-23T07:51:23.572Z,-2.80
2023-01-23T07:53:50.954Z,-2.70
2023-01-23T07:56:18.815Z,-2.70
2023-01-23T07:58:50.258Z,-2.80
2023-01-23T08:01:19.457Z,-2.70
2023-01-23T08:03:48.329Z,-2.70
2023-01-23T08:06:15.658Z,-2.60
2023-01-23T08:08:43.044Z,-2.80
2023-01-23T08:11:12.588Z,-2.80
2023-01-23T08:13:40.285Z,-2.70
2023-01-23T08:16:08.079Z,-2.80
2023-01-23T08:21:03.897Z,-2.50
2023-01-23T08:23:32.856Z,-2.50
2023-01-23T08:26:04.110Z,-2.50
2023-01-23T08:28:32.256Z,-2.50
2023-01-23T08:31:06.683Z,-2.50
2023-01-23T08:33:35.745Z,-0.60
2023-01-23T08:36:04.279Z,-2.40
2023-01-23T08:38:32.475Z,-2.40
2023-01-23T08:41:01.962Z,-1.70
2023-01-23T08:43:29.787Z,-2.30
2023-01-23T08:45:58.786Z,-1.70
2023-01-23T08:48:27.543Z,-2.20
2023-01-23T08:51:05.389Z,-2.20
2023-01-23T08:53:34.197Z,-1.80
2023-01-23T08:56:06.916Z,-2.20
2023-01-23T08:58:35.091Z,-2.00
2023-01-23T09:01:02.741Z,-2.10
2023-01-23T09:03:30.295Z,-2.10
2023-01-23T09:06:01.727Z,-2.00
2023-01-23T09:08:29.097Z,-2.00
2023-01-23T09:11:07.632Z,-1.90
2023-01-23T09:13:35.668Z,-1.80
2023-01-23T09:16:03.767Z,-1.80
2023-01-23T09:18:31.422Z,-1.80
2023-01-23T09:20:58.808Z,-1.70
2023-01-23T09:23:26.389Z,-1.70
2023-01-23T09:25:53.809Z,-1.70
2023-01-23T09:28:21.169Z,-1.60
2023-01-23T09:30:48.968Z,-1.60
2023-01-23T09:33:16.979Z,-1.60
2023-01-23T09:35:47.826Z,1.60
2023-01-23T09:38:15.140Z,-0.20
2023-01-23T09:40:51.376Z,-1.20
2023-01-23T09:43:21.690Z,0.50
2023-01-23T09:46:05.671Z,-1.20
2023-01-23T09:49:00.328Z,-1.00
2023-01-23T09:51:56.777Z,-0.90
2023-01-23T09:54:40.646Z,-0.80
2023-01-23T09:57:53.108Z,-0.70
2023-01-23T10:00:47.353Z,-0.70
2023-01-23T10:03:16.676Z,-0.40
2023-01-23T10:06:07.801Z,-0.40
2023-01-23T10:08:52.049Z,-0.40
2023-01-23T10:11:22.391Z,-0.20
2023-01-23T10:14:07.895Z,-0.20
2023-01-23T10:17:00.057Z,0.00
2023-01-23T10:19:40.818Z,0.10
2023-01-23T10:22:34.454Z,0.20
2023-01-23T10:25:19.994Z,0.30
2023-01-23T10:27:49.639Z,0.20
2023-01-23T10:30:33.590Z,0.50
2023-01-23T10:33:18.330Z,0.50
2023-01-23T10:35:50.878Z,0.90
2023-01-23T10:38:36.495Z,0.90
2023-01-23T10:41:14.506Z,0.90
2023-01-23T10:43:43.386Z,1.20
2023-01-23T10:46:23.374Z,1.30
2023-01-23T10:48:53.483Z,1.40
2023-01-23T10:51:47.074Z,1.60
2023-01-23T10:54:31.771Z,1.80
2023-01-23T10:59:41.353Z,2.00
2023-01-23T11:02:30.328Z,2.10
2023-01-23T11:04:58.280Z,2.20
2023-01-23T11:07:31.504Z,2.10
2023-01-23T11:10:20.955Z,2.40
2023-01-23T11:12:51.725Z,2.70
2023-01-23T11:15:28.606Z,2.60
2023-01-23T11:17:57.954Z,3.20
2023-01-23T11:20:52.212Z,2.70
2023-01-23T11:23:19.972Z,3.00
2023-01-23T11:25:49.581Z,2.90
2023-01-23T11:28:35.364Z,3.30
2023-01-23T11:31:15.652Z,3.30
2023-01-23T11:34:05.147Z,3.50
2023-01-23T11:37:10.514Z,3.70
2023-01-23T11:39:59.453Z,4.00
2023-01-23T11:42:28.976Z,4.10
2023-01-23T11:44:59.370Z,4.20
2023-01-23T11:48:18.447Z,4.40
2023-01-23T11:50:55.930Z,4.50
2023-01-23T11:53:42.358Z,4.50
2023-01-23T11:56:45.781Z,5.50
2023-01-23T11:59:43.695Z,4.70
2023-01-23T12:02:38.220Z,4.80
2023-01-23T12:05:48.936Z,4.90
2023-01-23T12:08:38.010Z,5.00
2023-01-23T12:11:17.114Z,5.20
2023-01-23T12:13:58.708Z,5.40
2023-01-23T12:16:58.320Z,5.60
2023-01-23T12:20:02.687Z,5.80
2023-01-23T12:22:56.255Z,5.90
2023-01-23T12:25:29.516Z,6.10
2023-01-23T12:28:18.059Z,6.40
2023-01-23T12:31:10.949Z,6.10
2023-01-23T12:33:56.074Z,6.40
2023-01-23T12:37:22.245Z,6.20
2023-01-23T12:42:33.243Z,5.90
2023-01-23T12:45:11.629Z,5.80
2023-01-23T12:48:01.018Z,5.70
2023-01-23T12:50:50.554Z,5.60
2023-01-23T12:53:22.076Z,5.60
2023-01-23T12:56:14.561Z,5.50
2023-01-23T12:58:51.510Z,5.50
2023-01-23T13:01:46.447Z,5.50
2023-01-23T13:04:19.790Z,5.40
2023-01-23T13:07:18.676Z,6.00
2023-01-23T13:10:06.196Z,5.30
2023-01-23T13:12:34.189Z,5.10
2023-01-23T13:15:30.868Z,4.80
2023-01-23T13:18:02.848Z,5.60
2023-01-23T13:21:16.852Z,5.70
2023-01-23T13:23:44.777Z,5.80
2023-01-23T13:26:23.164Z,5.90
2023-01-23T13:28:57.633Z,6.10
2023-01-23T13:31:35.611Z,6.30
2023-01-23T13:34:27.127Z,6.10
2023-01-23T13:36:54.615Z,6.10
2023-01-23T13:39:28.650Z,6.20
2023-01-23T13:42:14.817Z,5.70
2023-01-23T13:45:16.149Z,5.70
2023-01-23T14:22:47.647Z,5.20
2023-01-23T14:25:18.464Z,5.10
2023-01-23T14:27:54.525Z,8.40
2023-01-23T14:30:30.189Z,5.90
2023-01-23T14:32:59.309Z,5.10
2023-01-23T14:35:32.086Z,5.00
2023-01-23T14:38:07.908Z,5.10
2023-01-23T14:40:49.200Z,4.90
2023-01-23T14:43:22.236Z,4.90
2023-01-23T14:45:57.109Z,5.00
2023-01-23T14:48:24.657Z,5.10
2023-01-23T14:51:21.807Z,8.30
2023-01-23T14:54:01.816Z,5.00
2023-01-23T14:56:35.480Z,4.80
2023-01-23T14:59:15.890Z,5.00
2023-01-23T15:01:43.199Z,5.00
2023-01-23T15:04:21.667Z,6.20
2023-01-23T15:07:00.374Z,4.80
2023-01-23T15:09:31.399Z,6.30
2023-01-23T15:12:07.178Z,4.90
2023-01-23T15:14:39.712Z,5.00
2023-01-23T15:17:27.575Z,4.90
2023-01-23T15:20:01.036Z,4.90
2023-01-23T15:22:30.668Z,4.90
2023-01-23T15:25:16.910Z,4.60
2023-01-23T15:27:44.183Z,4.80
2023-01-23T15:30:33.792Z,4.60
2023-01-23T15:33:07.036Z,4.90
2023-01-23T15:35:35.517Z,4.60
2023-01-23T15:38:08.736Z,4.80
2023-01-23T15:40:38.634Z,4.70
2023-01-23T15:43:15.586Z,4.80
2023-01-23T15:48:10.718Z,4.80
2023-01-23T15:50:38.168Z,4.80
2023-01-23T15:53:12.511Z,4.50
2023-01-23T15:55:40.574Z,5.20
2023-01-23T15:58:14.927Z,5.40
2023-01-23T16:00:42.592Z,4.80
2023-01-23T16:03:10.282Z,4.60
2023-01-23T16:05:37.789Z,5.20
2023-01-23T16:08:14.224Z,4.70
2023-01-23T16:10:41.518Z,4.70
2023-01-23T16:13:12.438Z,4.70
2023-01-23T16:15:40.020Z,4.60
2023-01-23T16:18:07.457Z,4.50
2023-01-23T16:20:41.314Z,4.70
2023-01-23T16:23:22.004Z,5.10
2023-01-23T16:25:50.122Z,4.70
2023-01-23T16:28:23.903Z,4.60
2023-01-23T16:30:52.591Z,5.30
2023-01-23T16:33:20.979Z,4.70
2023-01-23T16:35:50.823Z,4.60
2023-01-23T16:38:27.898Z,4.60
2023-01-23T16:40:56.722Z,4.60
2023-01-23T16:43:24.036Z,4.60
2023-01-23T16:45:55.715Z,4.50
2023-01-23T16:48:27.573Z,4.60
2023-01-23T16:51:19.642Z,4.60
2023-01-23T16:53:52.803Z,5.00
2023-01-23T16:56:35.568Z,4.60
2023-01-23T16:59:05.964Z,4.40
2023-01-23T17:01:40.085Z,4.00
2023-01-23T17:06:35.375Z,4.80
2023-01-23T17:09:02.733Z,4.70
2023-01-23T17:11:35.477Z,4.40
2023-01-23T17:14:06.938Z,5.60
2023-01-23T17:16:34.391Z,4.30
2023-01-23T17:19:10.567Z,4.40
2023-01-23T17:21:38.044Z,4.50
2023-01-23T17:24:10.264Z,4.50
2023-01-23T17:26:37.597Z,4.50
2023-01-23T17:29:05.028Z,4.20
2023-01-23T17:31:33.162Z,4.50
2023-01-23T17:34:02.404Z,4.50
2023-01-23T17:36:30.108Z,5.00
2023-01-23T17:39:01.144Z,4.40
2023-01-23T17:41:31.610Z,4.50
2023-01-23T17:43:59.537Z,4.50
2023-01-23T17:46:29.259Z,4.50
2023-01-23T17:48:57.484Z,5.70
2023-01-23T17:51:26.190Z,4.40
2023-01-23T17:53:53.759Z,4.50
2023-01-23T17:56:21.054Z,4.50
2023-01-23T17:58:48.434Z,4.30
2023-01-23T18:01:22.446Z,4.50
2023-01-23T18:03:51.435Z,4.50
2023-01-23T18:06:19.429Z,4.20
2023-01-23T18:11:20.616Z,4.50
2023-01-23T18:14:25.406Z,4.50
2023-01-23T18:16:53.674Z,4.50
2023-01-23T18:19:22.738Z,4.50
2023-01-23T18:21:52.825Z,4.50
2023-01-23T18:24:33.452Z,4.50
2023-01-23T18:27:04.592Z,4.50
2023-01-23T18:29:49.845Z,4.30
2023-01-23T18:32:38.112Z,4.50
2023-01-23T18:35:31.589Z,4.80
2023-01-23T18:38:29.974Z,4.50
2023-01-23T18:41:15.898Z,4.50
2023-01-23T18:43:48.573Z,4.50
2023-01-23T18:46:21.222Z,4.30
2023-01-23T18:48:49.630Z,4.50
2023-01-23T18:51:37.752Z,4.50
2023-01-23T18:54:05.628Z,4.50
2023-01-23T18:56:51.706Z,4.50
2023-01-23T18:59:41.075Z,5.20
2023-01-23T19:02:16.119Z,4.50
2023-01-23T19:04:54.767Z,4.60
2023-01-23T19:07:22.886Z,4.30
2023-01-23T19:09:50.426Z,4.60
2023-01-23T19:12:25.699Z,4.30
2023-01-23T19:15:21.208Z,5.40
2023-01-23T19:18:07.325Z,4.50
2023-01-23T19:20:51.704Z,4.50
2023-01-23T19:24:01.526Z,5.30
2023-01-23T19:26:37.755Z,4.50
2023-01-23T19:29:20.637Z,4.50
2023-01-23T19:32:03.569Z,4.50
2023-01-23T19:34:32.363Z,4.50
2023-01-23T19:36:59.734Z,4.30
2023-01-23T19:39:27.004Z,4.40
2023-01-23T19:41:54.402Z,4.40
2023-01-23T19:44:25.073Z,5.60
2023-01-23T19:46:52.792Z,5.10
2023-01-23T19:49:20.360Z,4.50
2023-01-23T19:51:47.745Z,4.30
2023-01-23T19:54:15.996Z,4.00
2023-01-23T19:56:43.407Z,4.50
2023-01-23T19:59:11.405Z,4.40
2023-01-23T20:01:48.548Z,4.40
2023-01-23T20:04:19.226Z,4.30
2023-01-23T20:06:48.966Z,4.30
2023-01-23T20:09:17.560Z,4.30
2023-01-23T20:11:45.896Z,4.40
2023-01-23T20:14:13.730Z,4.20
2023-01-23T20:16:43.304Z,4.10
2023-01-23T20:19:17.629Z,4.30
2023-01-23T20:21:47.536Z,5.90
2023-01-23T20:24:16.093Z,4.60
2023-01-23T20:26:44.425Z,4.50
2023-01-23T20:29:12.069Z,4.50
2023-01-23T20:31:39.584Z,4.50
2023-01-23T20:34:07.388Z,4.10
2023-01-23T20:36:34.778Z,4.90
2023-01-23T20:39:02.125Z,4.50
2023-01-23T20:41:29.575Z,4.90
2023-01-23T20:43:57.132Z,5.00
2023-01-23T20:46:24.424Z,4.50
2023-01-23T20:48:51.696Z,6.10
2023-01-23T20:51:19.369Z,4.40
2023-01-23T20:56:17.439Z,4.60
2023-01-23T20:59:06.354Z,4.40
2023-01-23T21:01:55.065Z,4.50
2023-01-23T21:04:24.366Z,5.00
2023-01-23T21:06:51.840Z,4.50
2023-01-23T21:09:19.416Z,4.20
2023-01-23T21:11:47.007Z,4.20
2023-01-23T21:14:14.246Z,5.30
2023-01-23T21:16:41.839Z,4.90
2023-01-23T21:19:09.779Z,4.20
2023-01-23T21:21:37.656Z,4.30
2023-01-23T21:24:05.728Z,5.30
2023-01-23T21:26:33.712Z,4.60
2023-01-23T21:29:01.266Z,4.90
2023-01-23T21:31:32.879Z,4.30
2023-01-23T21:34:06.373Z,4.60
2023-01-23T21:36:34.244Z,5.30
2023-01-23T21:39:01.819Z,4.60
2023-01-23T21:41:29.235Z,5.00
2023-01-23T21:43:56.724Z,4.60
2023-01-23T21:46:24.173Z,4.60
2023-01-23T21:48:52.256Z,4.60
2023-01-23T21:51:22.060Z,4.60
2023-01-23T21:53:50.652Z,4.40
2023-01-23T21:56:19.874Z,5.20
2023-01-23T21:58:47.307Z,4.40
2023-01-23T22:01:34.007Z,4.50
2023-01-23T22:04:13.520Z,4.20
2023-01-23T22:06:42.695Z,4.70
2023-01-23T22:09:14.511Z,4.50
2023-01-23T22:11:41.873Z,4.50
2023-01-23T22:14:09.151Z,5.30
2023-01-23T22:16:47.850Z,4.60
2023-01-23T22:19:17.955Z,4.10
2023-01-23T22:21:46.581Z,4.60
2023-01-23T22:24:15.273Z,4.40
2023-01-23T22:29:15.057Z,4.60
2023-01-23T22:31:42.758Z,4.60
2023-01-23T22:34:10.267Z,4.60
2023-01-23T22:36:37.740Z,4.50
2023-01-23T22:41:32.935Z,4.60
2023-01-23T22:44:00.416Z,5.80
2023-01-23T22:46:28.914Z,4.60
2023-01-23T22:48:56.345Z,4.60
2023-01-23T22:51:25.904Z,4.50
2023-01-23T22:53:54.757Z,4.50
2023-01-23T22:58:52.475Z,4.60
2023-01-23T23:01:22.969Z,4.30
2023-01-23T23:03:51.392Z,4.60
2023-01-23T23:06:19.570Z,4.50
2023-01-23T23:08:48.097Z,3.00
2023-01-23T23:11:17.432Z,4.60
2023-01-23T23:16:26.735Z,4.50
2023-01-23T23:18:55.515Z,4.50
2023-01-23T23:21:26.062Z,4.40
2023-01-23T23:23:57.864Z,4.40
2023-01-23T23:26:27.196Z,4.60
2023-01-23T23:28:55.562Z,4.40
2023-01-23T23:31:23.011Z,4.60
2023-01-23T23:33:50.834Z,4.40
2023-01-23T23:36:18.237Z,4.30
2023-01-23T23:41:17.686Z,4.60
2023-01-23T23:43:45.642Z,4.50
2023-01-23T23:46:14.147Z,4.60
2023-01-23T23:48:43.569Z,4.60
2023-01-23T23:51:13.836Z,4.40
2023-01-23T23:53:42.721Z,4.20
2023-01-23T23:56:13.205Z,4.60
2023-01-23T23:58:40.488Z,4.60
